Time;durP1;ratioP1;P1;durP2;ratioP2;P2;SDS_P1;SDS_P2;PMS_P1;PMS_P2;Temp;Humidity;BMP_temperature;BMP_pressure;BME280_temperature;BME280_humidity;BME280_pressure;Samples;Min_cycle;Max_cycle;Signal;HPM_P1;HPM_P2
2021/08/17 00:01:56;;;;;;;1.40;1.10;;;14.70;99.90;;;;;;4969346;28;20400;-71
2021/08/17 00:04:22;;;;;;;1.17;1.10;;;14.70;99.90;;;;;;4987499;28;20401;-72
2021/08/17 00:06:47;;;;;;;1.80;1.35;;;14.70;99.90;;;;;;4970177;28;20470;-71
2021/08/17 00:09:14;;;;;;;1.60;1.23;;;14.70;99.90;;;;;;4988908;28;20473;-71
2021/08/17 00:11:40;;;;;;;1.35;1.20;;;14.70;99.90;;;;;;4970581;28;20410;-71
2021/08/17 00:14:06;;;;;;;1.17;1.07;;;14.70;99.90;;;;;;4971691;28;20397;-71
2021/08/17 00:16:31;;;;;;;1.15;1.10;;;14.60;99.90;;;;;;4984529;28;20390;-71
2021/08/17 00:18:57;;;;;;;2.40;1.30;;;14.60;99.90;;;;;;4970739;28;20397;-72
2021/08/17 00:21:23;;;;;;;1.52;1.20;;;14.60;99.90;;;;;;4970078;28;20423;-71
2021/08/17 00:23:48;;;;;;;1.23;1.13;;;14.60;99.90;;;;;;4969958;28;20404;-71
2021/08/17 00:26:14;;;;;;;1.23;1.13;;;14.60;99.90;;;;;;4987292;28;20385;-71
2021/08/17 00:28:40;;;;;;;1.50;1.40;;;14.60;99.90;;;;;;4986068;28;20416;-71
2021/08/17 00:31:06;;;;;;;1.40;1.30;;;14.60;99.90;;;;;;4985262;28;20479;-71
2021/08/17 00:33:31;;;;;;;1.50;1.40;;;14.60;99.90;;;;;;4970820;28;20446;-71
2021/08/17 00:35:57;;;;;;;1.90;1.30;;;14.60;99.90;;;;;;5002906;28;20398;-70
2021/08/17 00:38:23;;;;;;;1.10;1.10;;;14.50;99.90;;;;;;5001284;28;20401;-71
2021/08/17 00:40:49;;;;;;;2.00;1.40;;;14.60;99.90;;;;;;4986127;28;20399;-71
2021/08/17 00:43:15;;;;;;;1.40;1.30;;;14.60;99.90;;;;;;4969925;28;21127;-71
2021/08/17 00:45:40;;;;;;;1.10;1.10;;;14.60;99.90;;;;;;4986900;28;20471;-71
2021/08/17 00:48:06;;;;;;;1.73;1.63;;;14.60;99.90;;;;;;5001900;28;20404;-71
2021/08/17 00:50:34;;;;;;;1.80;1.30;;;14.60;99.90;;;;;;4986437;28;20652;-71
2021/08/17 00:53:00;;;;;;;1.60;1.50;;;14.50;99.90;;;;;;4985716;28;20938;-70
2021/08/17 00:55:28;;;;;;;1.40;1.30;;;14.50;99.90;;;;;;4985910;28;20401;-72
2021/08/17 00:57:55;;;;;;;1.55;1.45;;;14.50;99.90;;;;;;4969846;28;20396;-72
2021/08/17 01:00:20;;;;;;;2.08;1.60;;;14.50;99.90;;;;;;4972285;28;20405;-71
2021/08/17 01:02:46;;;;;;;1.92;1.60;;;14.50;99.90;;;;;;4985090;28;20429;-71
2021/08/17 01:05:13;;;;;;;1.60;1.50;;;14.50;99.90;;;;;;4985790;28;20404;-72
2021/08/17 01:07:38;;;;;;;4.68;1.80;;;14.40;99.90;;;;;;4969529;28;20420;-72
2021/08/17 01:10:05;;;;;;;1.70;1.60;;;14.40;99.90;;;;;;4985566;28;20473;-70
2021/08/17 01:12:32;;;;;;;3.22;1.60;;;14.40;99.90;;;;;;4984057;28;20414;-71
2021/08/17 01:14:57;;;;;;;1.67;1.58;;;14.40;99.90;;;;;;4971335;28;21191;-71
2021/08/17 01:17:23;;;;;;;1.73;1.48;;;14.40;99.90;;;;;;4982816;28;20397;-71
2021/08/17 01:19:49;;;;;;;1.83;1.73;;;14.40;99.90;;;;;;4969459;28;20753;-71
2021/08/17 01:22:15;;;;;;;3.40;1.80;;;14.40;99.90;;;;;;4983230;28;21047;-70
2021/08/17 01:24:41;;;;;;;2.00;1.80;;;14.30;99.90;;;;;;4986669;28;20476;-72
2021/08/17 01:27:06;;;;;;;1.70;1.50;;;14.30;99.90;;;;;;4984657;28;20395;-71
2021/08/17 01:29:32;;;;;;;3.00;1.50;;;14.30;99.90;;;;;;4986009;28;20396;-71
2021/08/17 01:31:58;;;;;;;1.67;1.57;;;14.30;99.90;;;;;;4968614;28;20788;-71
2021/08/17 01:34:24;;;;;;;1.50;1.40;;;14.20;99.90;;;;;;4970710;28;20453;-71
2021/08/17 01:36:50;;;;;;;2.17;1.70;;;14.30;99.90;;;;;;4968636;28;20400;-69
2021/08/17 01:39:16;;;;;;;1.70;1.60;;;14.20;99.90;;;;;;4969542;28;20723;-69
2021/08/17 01:41:42;;;;;;;2.08;1.48;;;14.20;99.90;;;;;;5000320;28;20400;-71
2021/08/17 01:44:13;;;;;;;1.70;1.60;;;14.20;99.90;;;;;;4986526;28;20410;-73
2021/08/17 01:46:45;;;;;;;1.58;1.48;;;14.20;99.90;;;;;;4984200;28;20405;-70
2021/08/17 01:49:12;;;;;;;2.65;1.45;;;14.20;99.90;;;;;;4986660;28;20432;-71
2021/08/17 01:51:38;;;;;;;1.85;1.63;;;14.20;99.90;;;;;;4985480;28;20423;-71
2021/08/17 01:54:04;;;;;;;1.63;1.52;;;14.20;99.90;;;;;;4987651;28;20414;-72
2021/08/17 01:56:29;;;;;;;1.80;1.60;;;14.20;99.90;;;;;;4971781;28;20657;-70
2021/08/17 01:58:55;;;;;;;1.77;1.60;;;14.20;99.90;;;;;;4986379;28;20390;-70
2021/08/17 02:01:21;;;;;;;1.40;1.30;;;14.20;99.90;;;;;;4967807;28;20468;-71
2021/08/17 02:03:47;;;;;;;2.13;1.65;;;14.20;99.90;;;;;;4969089;28;20393;-71
2021/08/17 02:06:12;;;;;;;3.00;1.80;;;14.20;99.90;;;;;;5001565;28;20472;-70
2021/08/17 02:08:38;;;;;;;1.87;1.67;;;14.30;99.90;;;;;;4968658;28;20461;-71
2021/08/17 02:11:04;;;;;;;2.05;1.63;;;14.20;99.90;;;;;;4984732;28;20492;-70
2021/08/17 02:13:30;;;;;;;1.50;1.40;;;14.20;99.90;;;;;;4984237;28;20409;-72
2021/08/17 02:15:57;;;;;;;1.90;1.75;;;14.20;99.90;;;;;;4967715;28;20458;-71
2021/08/17 02:18:23;;;;;;;2.90;1.58;;;14.20;99.90;;;;;;4968418;28;20401;-69
2021/08/17 02:20:48;;;;;;;1.73;1.60;;;14.20;99.90;;;;;;4968117;28;20923;-70
2021/08/17 02:23:14;;;;;;;3.17;1.77;;;14.20;99.90;;;;;;4969039;28;21046;-70
2021/08/17 02:25:40;;;;;;;1.70;1.60;;;14.20;99.90;;;;;;4969674;28;20405;-72
2021/08/17 02:28:05;;;;;;;1.97;1.77;;;14.20;99.90;;;;;;4967099;28;20391;-70
2021/08/17 02:30:31;;;;;;;1.52;1.42;;;14.20;99.90;;;;;;4984332;28;21806;-70
2021/08/17 02:32:57;;;;;;;1.60;1.50;;;14.10;99.90;;;;;;4968049;28;20411;-70
2021/08/17 02:35:22;;;;;;;1.63;1.52;;;14.20;99.90;;;;;;4968359;28;21019;-71
2021/08/17 02:37:48;;;;;;;1.50;1.40;;;14.10;99.90;;;;;;4983758;28;20406;-70
2021/08/17 02:40:14;;;;;;;2.28;1.70;;;14.10;99.90;;;;;;4983408;28;20385;-71
2021/08/17 02:42:40;;;;;;;1.50;1.40;;;14.10;99.90;;;;;;4983905;28;20838;-70
2021/08/17 02:45:06;;;;;;;1.55;1.30;;;14.10;99.90;;;;;;4967776;28;20450;-69
2021/08/17 02:47:32;;;;;;;1.55;1.45;;;14.00;99.90;;;;;;4998826;28;20421;-71
2021/08/17 02:49:57;;;;;;;1.27;1.17;;;14.00;99.90;;;;;;4985938;28;20403;-70
2021/08/17 02:52:23;;;;;;;2.23;1.50;;;14.00;99.90;;;;;;4966601;28;20419;-71
2021/08/17 02:54:50;;;;;;;2.33;1.60;;;13.90;99.90;;;;;;4988395;28;20405;-71
2021/08/17 02:57:17;;;;;;;1.40;1.30;;;13.90;99.90;;;;;;4983808;28;20404;-73
2021/08/17 02:59:43;;;;;;;1.40;1.30;;;13.90;99.90;;;;;;4969207;28;20397;-71
2021/08/17 03:02:09;;;;;;;2.05;1.60;;;13.80;99.90;;;;;;4966723;28;20538;-69
2021/08/17 03:04:34;;;;;;;1.60;1.50;;;13.80;99.90;;;;;;4969111;28;20396;-70
2021/08/17 03:07:00;;;;;;;1.80;1.50;;;13.80;99.90;;;;;;4949793;28;20992;-71
2021/08/17 03:09:26;;;;;;;1.30;1.20;;;13.80;99.90;;;;;;4985956;28;20459;-70
2021/08/17 03:11:52;;;;;;;1.73;1.48;;;13.80;99.90;;;;;;4967354;28;20421;-71
2021/08/17 03:14:17;;;;;;;2.30;1.80;;;13.80;99.90;;;;;;4968117;28;20397;-70
2021/08/17 03:16:43;;;;;;;1.60;1.50;;;13.70;99.90;;;;;;4981444;28;20421;-71
2021/08/17 03:19:09;;;;;;;1.80;1.40;;;13.70;99.90;;;;;;4984704;28;20413;-71
2021/08/17 03:21:34;;;;;;;3.33;1.73;;;13.70;99.90;;;;;;4999669;28;20400;-68
2021/08/17 03:24:00;;;;;;;1.40;1.30;;;13.70;99.90;;;;;;4984705;28;20440;-80
2021/08/17 03:26:26;;;;;;;1.50;1.40;;;13.60;99.90;;;;;;4967819;28;20388;-78
2021/08/17 03:28:52;;;;;;;6.07;1.60;;;13.60;99.90;;;;;;4967602;28;20456;-72
2021/08/17 03:31:18;;;;;;;1.60;1.50;;;13.60;99.90;;;;;;4966296;28;20695;-69
2021/08/17 03:33:43;;;;;;;1.57;1.47;;;13.60;99.90;;;;;;4967762;28;20412;-71
2021/08/17 03:36:09;;;;;;;1.27;1.20;;;13.60;99.90;;;;;;4985895;28;20404;-70
2021/08/17 03:38:35;;;;;;;1.73;1.43;;;13.60;99.90;;;;;;4968924;28;21287;-71
2021/08/17 03:41:01;;;;;;;2.80;1.70;;;13.60;99.90;;;;;;4988544;28;20452;-69
2021/08/17 03:43:26;;;;;;;1.30;1.20;;;13.50;99.90;;;;;;4987439;28;20417;-71
2021/08/17 03:45:55;;;;;;;1.40;1.30;;;13.60;99.90;;;;;;4986750;28;20804;-71
2021/08/17 03:48:20;;;;;;;2.65;1.63;;;13.60;99.90;;;;;;4987488;28;20405;-69
2021/08/17 03:50:46;;;;;;;1.35;1.25;;;13.50;99.90;;;;;;4988077;28;20410;-71
2021/08/17 03:53:12;;;;;;;1.20;1.10;;;13.50;99.90;;;;;;4955750;28;20419;-71
2021/08/17 03:55:37;;;;;;;1.87;1.53;;;13.60;99.90;;;;;;4990810;28;20812;-75
2021/08/17 03:58:03;;;;;;;2.15;1.65;;;13.60;99.90;;;;;;4970847;28;20399;-72
2021/08/17 04:00:32;;;;;;;1.73;1.60;;;13.60;99.90;;;;;;4996388;28;20394;-72
2021/08/17 04:02:57;;;;;;;1.83;1.60;;;13.60;99.90;;;;;;4987247;28;20452;-71
2021/08/17 04:05:23;;;;;;;2.10;1.70;;;13.60;99.90;;;;;;4986861;28;20402;-70
2021/08/17 04:07:49;;;;;;;1.40;1.30;;;13.60;99.90;;;;;;4987198;28;20825;-71
2021/08/17 04:10:14;;;;;;;2.60;1.57;;;13.70;99.90;;;;;;4986594;28;21008;-71
2021/08/17 04:12:40;;;;;;;1.65;1.55;;;13.70;99.90;;;;;;4986242;28;20415;-72
2021/08/17 04:15:07;;;;;;;2.40;1.60;;;13.70;99.90;;;;;;4988279;28;20385;-71
2021/08/17 04:17:33;;;;;;;1.45;1.35;;;13.70;99.90;;;;;;4987411;28;20401;-71
2021/08/17 04:19:58;;;;;;;2.43;1.77;;;13.70;99.90;;;;;;4987950;28;20401;-70
2021/08/17 04:22:24;;;;;;;1.40;1.30;;;13.90;99.90;;;;;;4971223;28;20883;-72
2021/08/17 04:24:50;;;;;;;1.80;1.70;;;13.80;99.90;;;;;;4989853;28;20415;-71
2021/08/17 04:27:15;;;;;;;3.95;1.65;;;13.80;99.90;;;;;;4969930;28;20414;-71
2021/08/17 04:29:43;;;;;;;1.63;1.53;;;13.80;99.90;;;;;;4972077;28;20410;-70
2021/08/17 04:32:08;;;;;;;1.27;1.23;;;13.80;99.90;;;;;;4968294;28;21063;-70
2021/08/17 04:34:34;;;;;;;1.38;1.27;;;13.80;99.90;;;;;;4972279;28;20403;-72
2021/08/17 04:36:59;;;;;;;1.60;1.40;;;13.80;99.90;;;;;;4985652;28;20432;-71
2021/08/17 04:39:25;;;;;;;2.05;1.50;;;13.80;99.90;;;;;;4986674;28;20414;-70
2021/08/17 04:41:51;;;;;;;1.83;1.50;;;13.80;99.90;;;;;;4968554;28;20405;-71
2021/08/17 04:44:17;;;;;;;1.50;1.40;;;13.80;99.90;;;;;;4986907;28;20409;-71
2021/08/17 04:46:42;;;;;;;2.50;1.77;;;13.90;99.90;;;;;;4985595;28;20412;-70
2021/08/17 04:49:08;;;;;;;1.52;1.42;;;13.90;99.90;;;;;;5003702;28;20397;-69
2021/08/17 04:51:34;;;;;;;1.30;1.30;;;13.90;99.90;;;;;;4970080;28;21349;-70
2021/08/17 04:54:00;;;;;;;1.40;1.30;;;13.90;99.90;;;;;;4974214;28;20407;-70
2021/08/17 04:56:25;;;;;;;1.30;1.20;;;14.00;99.90;;;;;;4985985;28;20397;-70
2021/08/17 04:58:51;;;;;;;1.40;1.30;;;14.00;99.90;;;;;;4970274;28;20403;-70
2021/08/17 05:01:17;;;;;;;2.67;1.63;;;14.00;99.90;;;;;;4969247;28;20471;-71
2021/08/17 05:03:43;;;;;;;2.50;1.45;;;14.00;99.90;;;;;;5002319;28;20428;-70
2021/08/17 05:06:09;;;;;;;2.30;1.40;;;14.00;99.90;;;;;;4985560;28;20838;-69
2021/08/17 05:08:34;;;;;;;1.50;1.40;;;14.00;99.90;;;;;;4970162;28;20974;-70
2021/08/17 05:11:00;;;;;;;1.55;1.45;;;14.10;99.90;;;;;;4993937;28;20408;-70
2021/08/17 05:13:26;;;;;;;1.33;1.23;;;14.10;99.90;;;;;;4969951;28;20399;-70
2021/08/17 05:15:51;;;;;;;1.85;1.58;;;14.10;99.90;;;;;;4970062;28;20769;-70
2021/08/17 05:18:17;;;;;;;1.30;1.10;;;14.10;99.90;;;;;;4986280;28;20937;-70
2021/08/17 05:20:43;;;;;;;2.00;1.80;;;14.10;99.90;;;;;;4971122;28;20397;-70
2021/08/17 05:23:08;;;;;;;1.60;1.35;;;14.10;99.90;;;;;;4969866;28;21028;-69
2021/08/17 05:25:34;;;;;;;1.60;1.50;;;14.20;99.90;;;;;;4970154;28;20792;-71
2021/08/17 05:28:00;;;;;;;3.00;1.40;;;14.20;99.90;;;;;;4969677;28;20402;-70
2021/08/17 05:30:25;;;;;;;1.87;1.40;;;14.10;99.90;;;;;;4968488;28;20825;-71
2021/08/17 05:32:51;;;;;;;1.50;1.40;;;14.20;99.90;;;;;;4970291;28;20822;-70
2021/08/17 05:35:17;;;;;;;2.83;1.37;;;14.20;99.90;;;;;;4969238;28;20399;-71
2021/08/17 05:37:43;;;;;;;1.42;1.33;;;14.20;99.90;;;;;;4967833;28;20397;-71
2021/08/17 05:40:09;;;;;;;1.77;1.52;;;14.20;99.90;;;;;;4969423;28;20387;-71
2021/08/17 05:42:35;;;;;;;1.40;1.30;;;14.20;99.90;;;;;;4968333;28;20477;-70
2021/08/17 05:45:00;;;;;;;1.40;1.30;;;14.20;99.90;;;;;;4970407;28;21116;-70
2021/08/17 05:47:27;;;;;;;1.40;1.30;;;14.20;99.90;;;;;;4967605;28;20399;-70
2021/08/17 05:49:52;;;;;;;2.10;1.20;;;14.20;99.90;;;;;;5000559;28;20401;-71
2021/08/17 05:52:18;;;;;;;1.17;1.13;;;14.30;99.90;;;;;;4984214;28;20411;-71
2021/08/17 05:54:44;;;;;;;2.08;1.48;;;14.40;99.90;;;;;;4985724;28;21825;-71
2021/08/17 05:57:09;;;;;;;2.25;1.50;;;14.40;99.90;;;;;;4983309;28;20484;-70
2021/08/17 05:59:36;;;;;;;1.63;1.53;;;14.40;99.90;;;;;;4977974;28;20402;-71
2021/08/17 06:02:03;;;;;;;1.70;1.60;;;14.40;99.90;;;;;;4966723;28;20405;-71
2021/08/17 06:04:29;;;;;;;1.40;1.30;;;14.40;99.90;;;;;;4969046;28;20804;-69
2021/08/17 06:06:55;;;;;;;1.25;1.17;;;14.50;99.90;;;;;;4968440;28;20941;-71
2021/08/17 06:09:21;;;;;;;1.00;1.00;;;14.50;99.90;;;;;;4986096;28;20385;-72
2021/08/17 06:11:50;;;;;;;1.35;1.25;;;14.60;99.90;;;;;;4967652;28;20945;-71
2021/08/17 06:14:16;;;;;;;1.15;1.10;;;14.60;99.90;;;;;;4969844;28;20425;-71
2021/08/17 06:16:42;;;;;;;2.75;1.17;;;14.60;99.90;;;;;;4967975;28;20404;-72
2021/08/17 06:19:08;;;;;;;1.40;1.30;;;14.70;99.90;;;;;;4968884;28;20404;-71
2021/08/17 06:21:34;;;;;;;1.63;1.30;;;14.70;99.90;;;;;;4969083;28;20443;-71
2021/08/17 06:24:01;;;;;;;1.27;1.17;;;14.70;99.90;;;;;;4969584;28;20400;-72
2021/08/17 06:26:26;;;;;;;1.57;1.20;;;14.70;99.90;;;;;;4985157;28;20967;-71
2021/08/17 06:28:52;;;;;;;1.20;1.02;;;14.80;99.90;;;;;;4968637;28;20430;-71
2021/08/17 06:31:21;;;;;;;1.40;1.30;;;14.80;99.90;;;;;;4984135;28;20417;-71
2021/08/17 06:33:48;;;;;;;1.73;1.33;;;14.90;99.90;;;;;;4970853;28;20389;-71
2021/08/17 06:36:14;;;;;;;1.33;1.23;;;14.90;99.90;;;;;;4966891;28;20407;-70
2021/08/17 06:38:39;;;;;;;0.90;0.90;;;15.00;99.90;;;;;;4968378;28;20798;-71
2021/08/17 06:41:05;;;;;;;1.20;1.10;;;15.10;99.90;;;;;;4968394;28;20451;-70
2021/08/17 06:43:30;;;;;;;1.30;1.23;;;15.10;99.90;;;;;;4992970;28;20478;-71
2021/08/17 06:45:58;;;;;;;2.40;1.00;;;15.30;99.90;;;;;;4967513;28;20910;-71
2021/08/17 06:48:24;;;;;;;1.33;1.23;;;15.40;99.90;;;;;;5000996;28;20409;-71
2021/08/17 06:50:50;;;;;;;0.98;0.98;;;15.40;99.90;;;;;;4952752;28;20418;-71
2021/08/17 06:53:15;;;;;;;1.93;1.30;;;15.50;99.90;;;;;;4992019;28;20389;-71
2021/08/17 06:55:42;;;;;;;1.70;1.33;;;15.60;99.90;;;;;;4969196;28;20404;-71
2021/08/17 06:58:12;;;;;;;0.85;0.85;;;15.70;99.90;;;;;;4968422;28;20400;-72
2021/08/17 07:00:38;;;;;;;0.90;0.90;;;15.80;99.90;;;;;;4983603;28;20430;-72
2021/08/17 07:03:06;;;;;;;1.23;1.10;;;15.80;99.90;;;;;;4970262;28;20386;-72
2021/08/17 07:05:36;;;;;;;2.72;1.23;;;15.90;99.90;;;;;;4970606;28;20398;-71
2021/08/17 07:08:03;;;;;;;1.10;1.10;;;15.90;99.90;;;;;;4968319;28;20405;-72
2021/08/17 07:10:28;;;;;;;1.50;1.20;;;15.90;99.90;;;;;;4969772;28;20393;-72
2021/08/17 07:12:54;;;;;;;1.20;1.10;;;15.90;99.90;;;;;;4981605;28;20406;-72
2021/08/17 07:15:20;;;;;;;1.20;1.10;;;15.80;99.90;;;;;;4968620;28;20893;-73
2021/08/17 07:17:46;;;;;;;1.33;1.10;;;15.80;99.90;;;;;;4971815;28;20392;-71
2021/08/17 07:20:12;;;;;;;1.20;0.97;;;15.80;99.90;;;;;;4988933;28;20873;-71
2021/08/17 07:22:37;;;;;;;1.30;1.20;;;15.90;99.90;;;;;;4987655;28;20398;-71
2021/08/17 07:25:03;;;;;;;1.43;1.23;;;15.80;99.90;;;;;;4988347;28;20429;-72
2021/08/17 07:27:29;;;;;;;1.50;1.10;;;15.90;99.90;;;;;;4954876;28;20409;-71
2021/08/17 07:29:55;;;;;;;1.33;1.23;;;15.90;99.90;;;;;;4973142;28;20399;-71
2021/08/17 07:32:21;;;;;;;1.20;1.20;;;16.00;99.90;;;;;;4986422;28;20404;-71
2021/08/17 07:34:47;;;;;;;1.30;1.20;;;16.10;99.90;;;;;;4972319;28;20401;-72
2021/08/17 07:37:12;;;;;;;1.20;1.10;;;16.10;99.90;;;;;;4971083;28;20473;-71
2021/08/17 07:39:38;;;;;;;1.27;1.17;;;16.10;99.90;;;;;;4971916;28;20398;-71
2021/08/17 07:42:04;;;;;;;1.40;1.23;;;16.10;99.90;;;;;;4970072;28;20929;-72
2021/08/17 07:44:30;;;;;;;1.75;1.15;;;16.20;99.90;;;;;;4972838;28;20437;-71
2021/08/17 07:46:56;;;;;;;1.30;1.20;;;16.30;99.90;;;;;;4970293;28;20937;-71
2021/08/17 07:49:22;;;;;;;1.05;1.02;;;16.40;99.90;;;;;;4988427;28;20985;-71
2021/08/17 07:51:48;;;;;;;1.10;1.10;;;16.50;99.90;;;;;;4969477;28;20418;-71
2021/08/17 07:54:13;;;;;;;2.85;1.20;;;16.50;99.90;;;;;;4988433;28;20403;-71
2021/08/17 07:56:39;;;;;;;2.97;1.30;;;16.50;99.90;;;;;;4987540;28;20408;-71
2021/08/17 07:59:05;;;;;;;1.17;1.17;;;16.50;99.90;;;;;;5003967;28;20407;-71
2021/08/17 08:01:30;;;;;;;1.60;1.40;;;16.50;99.90;;;;;;4986182;28;20414;-71
2021/08/17 08:03:57;;;;;;;1.33;1.13;;;16.50;99.90;;;;;;5004467;28;20396;-72
2021/08/17 08:06:23;;;;;;;1.02;1.00;;;16.50;99.90;;;;;;4971667;28;20719;-71
2021/08/17 08:08:49;;;;;;;1.60;1.38;;;16.50;99.90;;;;;;4987127;28;20411;-72
2021/08/17 08:11:15;;;;;;;1.00;1.00;;;16.30;99.90;;;;;;4971013;28;20402;-71
2021/08/17 08:13:41;;;;;;;1.40;1.30;;;16.20;99.90;;;;;;4987970;28;20496;-71
2021/08/17 08:16:07;;;;;;;1.65;1.10;;;16.20;99.90;;;;;;4987007;28;20478;-72
2021/08/17 08:18:32;;;;;;;0.90;0.90;;;16.20;99.90;;;;;;4985923;28;20391;-72
2021/08/17 08:20:58;;;;;;;0.75;0.75;;;16.20;99.90;;;;;;4971867;28;20911;-71
2021/08/17 08:23:24;;;;;;;1.27;1.13;;;16.10;99.90;;;;;;4987157;28;20810;-72
2021/08/17 08:25:49;;;;;;;3.38;1.38;;;16.10;99.90;;;;;;4970838;28;20408;-70
2021/08/17 08:28:15;;;;;;;3.07;1.10;;;16.10;99.90;;;;;;4995231;28;20908;-71
2021/08/17 08:30:41;;;;;;;1.03;1.00;;;16.10;99.90;;;;;;4985913;28;20431;-72
2021/08/17 08:33:06;;;;;;;1.00;0.93;;;16.20;99.90;;;;;;4969933;28;20479;-71
2021/08/17 08:35:32;;;;;;;1.30;1.20;;;16.20;99.90;;;;;;4972334;28;20400;-71
2021/08/17 08:37:58;;;;;;;1.30;1.20;;;16.30;99.90;;;;;;4984907;28;20608;-71
2021/08/17 08:40:24;;;;;;;2.73;1.33;;;16.40;99.90;;;;;;4971373;28;20405;-71
2021/08/17 08:42:50;;;;;;;1.25;1.15;;;16.50;99.90;;;;;;4970653;28;20399;-71
2021/08/17 08:45:16;;;;;;;2.50;1.30;;;16.50;99.90;;;;;;4986917;28;20393;-72
2021/08/17 08:47:42;;;;;;;2.00;1.08;;;16.50;99.90;;;;;;4985841;28;20457;-72
2021/08/17 08:50:08;;;;;;;1.20;1.10;;;16.50;99.90;;;;;;4972071;28;20388;-71
2021/08/17 08:52:34;;;;;;;1.90;1.20;;;16.50;99.90;;;;;;4967394;28;20949;-72
2021/08/17 08:55:02;;;;;;;1.48;1.20;;;16.50;99.90;;;;;;4970988;28;20397;-71
2021/08/17 08:57:28;;;;;;;1.38;1.17;;;16.40;99.90;;;;;;4969523;28;20397;-71
2021/08/17 08:59:54;;;;;;;4.60;1.20;;;16.40;99.90;;;;;;4970345;28;21323;-72
2021/08/17 09:02:21;;;;;;;1.67;1.30;;;16.30;99.90;;;;;;4984967;28;20410;-71
2021/08/17 09:04:54;;;;;;;3.65;1.48;;;16.30;99.90;;;;;;4971674;28;20397;-71
2021/08/17 09:07:35;;;;;;;1.70;1.33;;;16.20;99.90;;;;;;4985262;28;20443;-71
2021/08/17 09:10:14;;;;;;;1.93;1.47;;;16.20;99.90;;;;;;4995900;28;20485;-71
2021/08/17 09:12:45;;;;;;;2.38;1.23;;;16.10;99.90;;;;;;4970175;28;20413;-71
2021/08/17 09:15:16;;;;;;;1.80;1.20;;;16.10;99.90;;;;;;4986550;28;20413;-71
2021/08/17 09:17:42;;;;;;;2.42;1.30;;;16.10;99.90;;;;;;4985239;28;20401;-71
2021/08/17 09:20:10;;;;;;;2.05;1.50;;;16.10;99.90;;;;;;4986453;28;20486;-71
2021/08/17 09:22:35;;;;;;;1.30;1.20;;;16.10;99.90;;;;;;4984127;28;20431;-70
2021/08/17 09:25:02;;;;;;;1.65;1.55;;;16.10;99.90;;;;;;4969384;28;20490;-71
2021/08/17 09:27:35;;;;;;;1.60;1.35;;;16.10;99.90;;;;;;4986350;28;20407;-71
2021/08/17 09:30:09;;;;;;;2.38;1.30;;;16.10;99.90;;;;;;5012371;28;20904;-71
2021/08/17 09:32:44;;;;;;;1.30;1.08;;;16.10;99.90;;;;;;4984432;28;20510;-70
2021/08/17 09:35:10;;;;;;;1.52;1.33;;;16.10;99.90;;;;;;4970842;28;20825;-71
2021/08/17 09:37:35;;;;;;;2.30;1.40;;;16.20;99.90;;;;;;4983193;28;20468;-72
2021/08/17 09:40:03;;;;;;;3.60;1.48;;;16.20;99.90;;;;;;4986462;28;20741;-71
2021/08/17 09:42:33;;;;;;;1.45;1.35;;;16.10;99.90;;;;;;4968273;28;20409;-71
2021/08/17 09:45:06;;;;;;;1.10;1.10;;;16.00;99.90;;;;;;4969213;28;20469;-71
2021/08/17 09:47:35;;;;;;;1.15;1.08;;;16.00;99.90;;;;;;4994303;28;20971;-73
2021/08/17 09:50:26;;;;;;;1.67;1.40;;;16.00;99.90;;;;;;4970721;28;20665;-72
2021/08/17 09:53:15;;;;;;;1.27;1.10;;;15.90;99.90;;;;;;5009007;28;20490;-72
2021/08/17 09:55:57;;;;;;;1.00;1.00;;;15.80;99.90;;;;;;4985157;28;20460;-71
2021/08/17 09:58:37;;;;;;;1.65;1.33;;;15.70;99.90;;;;;;4983810;28;20463;-71
2021/08/17 10:01:04;;;;;;;1.42;1.20;;;15.70;99.90;;;;;;4984394;28;20567;-71
2021/08/17 10:03:30;;;;;;;1.30;1.20;;;15.70;99.90;;;;;;4968898;28;20405;-70
2021/08/17 10:05:56;;;;;;;4.33;1.60;;;15.70;99.90;;;;;;4985330;28;20399;-72
2021/08/17 10:08:24;;;;;;;1.30;1.20;;;15.80;99.90;;;;;;4969159;28;20957;-72
2021/08/17 10:10:52;;;;;;;1.30;1.20;;;15.90;99.90;;;;;;4969098;28;21039;-71
2021/08/17 10:13:22;;;;;;;1.50;1.30;;;16.10;99.90;;;;;;5001097;28;20878;-72
2021/08/17 10:15:48;;;;;;;1.27;1.17;;;16.10;99.90;;;;;;4993878;28;20403;-72
2021/08/17 10:18:17;;;;;;;2.25;1.70;;;16.10;99.90;;;;;;4968129;28;20392;-72
2021/08/17 10:20:50;;;;;;;2.20;1.50;;;16.10;99.90;;;;;;4985387;28;20413;-71
2021/08/17 10:23:17;;;;;;;1.40;1.00;;;16.10;99.90;;;;;;4968185;28;20849;-71
2021/08/17 10:25:53;;;;;;;1.40;1.30;;;16.30;99.90;;;;;;4985162;28;20399;-71
2021/08/17 10:28:24;;;;;;;1.17;1.13;;;16.40;99.90;;;;;;4993049;28;20875;-72
2021/08/17 10:30:50;;;;;;;2.03;1.08;;;16.40;99.90;;;;;;4993917;28;20406;-71
2021/08/17 10:33:38;;;;;;;2.60;1.30;;;16.50;99.90;;;;;;4967562;28;20504;-72
2021/08/17 10:36:04;;;;;;;1.20;1.10;;;16.50;99.90;;;;;;4992968;28;21078;-72
2021/08/17 10:38:29;;;;;;;1.23;1.15;;;16.40;99.90;;;;;;4984521;28;20451;-72
2021/08/17 10:40:55;;;;;;;1.30;1.20;;;16.40;99.90;;;;;;4994935;28;20758;-72
2021/08/17 10:43:26;;;;;;;1.77;1.23;;;16.40;99.90;;;;;;4993202;28;20486;-72
2021/08/17 10:45:53;;;;;;;1.60;1.50;;;16.50;99.90;;;;;;5008350;28;21174;-73
2021/08/17 10:49:05;;;;;;;3.15;1.55;;;16.40;99.90;;;;;;4984039;28;20449;-72
2021/08/17 10:51:30;;;;;;;1.50;1.40;;;16.40;99.90;;;;;;4993835;28;20419;-71
2021/08/17 10:54:04;;;;;;;1.40;1.30;;;16.60;99.90;;;;;;4985220;28;20455;-72
2021/08/17 10:56:34;;;;;;;1.50;1.40;;;16.70;99.90;;;;;;4991384;28;20462;-72
2021/08/17 10:59:00;;;;;;;1.40;1.20;;;16.80;99.90;;;;;;4969349;28;21006;-72
2021/08/17 11:01:32;;;;;;;1.50;1.35;;;17.00;99.90;;;;;;4968787;28;20480;-71
2021/08/17 11:04:20;;;;;;;2.13;1.55;;;17.20;99.90;;;;;;5003896;28;20914;-72
2021/08/17 11:06:50;;;;;;;1.63;1.40;;;17.50;99.90;;;;;;4988705;28;20407;-71
2021/08/17 11:09:35;;;;;;;1.92;1.52;;;17.80;99.90;;;;;;4969376;28;20395;-71
2021/08/17 11:12:08;;;;;;;5.10;1.85;;;17.90;99.90;;;;;;4970392;28;20417;-73
2021/08/17 11:14:35;;;;;;;1.70;1.30;;;18.00;99.90;;;;;;4995941;28;20447;-72
2021/08/17 11:17:06;;;;;;;1.70;1.60;;;18.00;99.90;;;;;;4984937;28;20554;-72
2021/08/17 11:19:33;;;;;;;1.92;1.40;;;18.00;99.90;;;;;;4968859;28;20975;-72
2021/08/17 11:22:00;;;;;;;1.97;1.73;;;17.90;99.90;;;;;;4967012;28;20453;-71
2021/08/17 11:24:27;;;;;;;1.40;1.30;;;17.90;99.90;;;;;;4968123;28;20474;-72
2021/08/17 11:26:58;;;;;;;1.50;1.40;;;18.00;99.90;;;;;;4966695;28;20874;-71
2021/08/17 11:29:42;;;;;;;2.72;1.70;;;18.00;99.90;;;;;;5001605;28;20425;-73
2021/08/17 11:32:30;;;;;;;2.30;1.77;;;18.20;99.90;;;;;;4995216;28;20409;-72
2021/08/17 11:34:56;;;;;;;1.50;1.40;;;18.20;99.90;;;;;;4996990;28;20397;-72
2021/08/17 11:37:23;;;;;;;1.70;1.60;;;18.30;99.90;;;;;;4983796;28;20411;-73
2021/08/17 11:39:54;;;;;;;1.40;1.30;;;18.50;99.90;;;;;;4969521;28;20401;-72
2021/08/17 11:42:21;;;;;;;1.47;1.30;;;18.60;99.90;;;;;;4969118;28;20392;-72
2021/08/17 11:44:49;;;;;;;1.55;1.42;;;18.50;99.90;;;;;;4993230;28;20401;-72
2021/08/17 11:47:19;;;;;;;1.55;1.30;;;18.50;99.90;;;;;;4985743;28;20905;-73
2021/08/17 11:49:46;;;;;;;2.88;1.50;;;18.40;99.90;;;;;;4988454;28;20420;-72
2021/08/17 11:52:15;;;;;;;1.60;1.50;;;18.30;99.90;;;;;;4983667;28;20423;-72
2021/08/17 11:54:43;;;;;;;1.27;1.20;;;18.30;99.90;;;;;;5007519;28;20461;-72
2021/08/17 11:57:09;;;;;;;1.20;1.10;;;18.40;99.90;;;;;;4967380;28;20483;-72
2021/08/17 11:59:43;;;;;;;1.30;1.10;;;18.40;99.90;;;;;;4968768;28;21196;-71
2021/08/17 12:02:09;;;;;;;2.10;1.30;;;18.50;99.90;;;;;;4969282;28;20418;-72
2021/08/17 12:04:35;;;;;;;1.27;1.17;;;18.60;99.90;;;;;;4972922;28;20457;-71
2021/08/17 12:07:08;;;;;;;1.40;1.30;;;18.70;99.90;;;;;;4986956;28;20494;-71
2021/08/17 12:09:38;;;;;;;1.50;1.25;;;18.80;99.90;;;;;;4988063;28;20413;-71
2021/08/17 12:12:04;;;;;;;1.33;1.23;;;19.00;99.90;;;;;;4993646;28;20415;-75
2021/08/17 12:14:30;;;;;;;1.40;1.20;;;19.20;99.90;;;;;;4975414;28;20381;-74
2021/08/17 12:16:57;;;;;;;1.90;1.33;;;19.40;99.90;;;;;;4987839;28;20800;-73
2021/08/17 12:19:23;;;;;;;1.92;1.30;;;19.80;99.90;;;;;;4969492;28;20410;-72
2021/08/17 12:21:50;;;;;;;1.20;1.20;;;20.10;99.90;;;;;;4967386;28;20523;-73
2021/08/17 12:24:30;;;;;;;1.80;1.50;;;20.20;99.90;;;;;;4972788;28;20384;-72
2021/08/17 12:27:03;;;;;;;3.03;1.42;;;20.30;99.90;;;;;;4971034;28;20443;-74
2021/08/17 12:29:39;;;;;;;5.30;1.88;;;20.60;99.90;;;;;;4973377;28;20446;-73
2021/08/17 12:32:28;;;;;;;2.17;1.40;;;20.90;99.90;;;;;;4966588;28;20417;-73
2021/08/17 12:34:54;;;;;;;2.03;1.37;;;21.10;99.90;;;;;;5003813;28;20396;-73
2021/08/17 12:37:30;;;;;;;1.48;1.35;;;21.00;99.90;;;;;;4969383;28;20961;-74
2021/08/17 12:39:58;;;;;;;1.33;1.20;;;20.50;99.90;;;;;;4992219;28;20414;-74
2021/08/17 12:42:24;;;;;;;2.50;1.45;;;20.10;99.90;;;;;;4976081;28;20401;-74
2021/08/17 12:44:49;;;;;;;3.72;1.42;;;19.80;99.90;;;;;;4968139;28;20397;-72
2021/08/17 12:47:19;;;;;;;1.50;1.33;;;19.70;99.90;;;;;;4981421;28;20446;-74
2021/08/17 12:49:51;;;;;;;1.38;1.27;;;19.50;99.90;;;;;;4987462;28;20496;-73